Time;durP1;ratioP1;P1;durP2;ratioP2;P2;SDS_P1;SDS_P2;PMS_P1;PMS_P2;Temp;Humidity;BMP_temperature;BMP_pressure;BME280_temperature;BME280_humidity;BME280_pressure;Samples;Min_cycle;Max_cycle;Signal;HPM_P1;HPM_P2
2022/11/20 00:00:17;;;;;;;54.38;50.72;;;;;;;13.30;73.24;101501.00;4994166;28;102309;-52
2022/11/20 00:02:44;;;;;;;51.67;48.03;;;;;;;13.31;73.28;101499.94;4994838;28;102168;-52
2022/11/20 00:05:10;;;;;;;53.60;49.97;;;;;;;13.32;73.00;101501.56;4994952;28;103832;-51
2022/11/20 00:07:38;;;;;;;58.90;54.90;;;;;;;13.31;73.30;101499.94;4996985;28;102915;-52
2022/11/20 00:10:06;;;;;;;53.28;49.70;;;;;;;13.32;72.87;101504.31;5004569;28;102348;-52
2022/11/20 00:12:33;;;;;;;55.75;51.95;;;;;;;13.31;73.22;101489.81;5010021;28;102301;-52
2022/11/20 00:15:00;;;;;;;56.15;52.45;;;;;;;13.30;73.13;101484.63;5010712;28;103992;-52
2022/11/20 00:17:27;;;;;;;60.20;56.17;;;;;;;13.32;72.73;101493.38;5001645;28;102761;-52
2022/11/20 00:19:53;;;;;;;58.22;54.35;;;;;;;13.33;73.07;101492.28;5010102;28;102428;-52
2022/11/20 00:22:20;;;;;;;59.05;55.35;;;;;;;13.32;73.13;101498.84;4998968;28;102631;-52
2022/11/20 00:24:48;;;;;;;57.65;53.95;;;;;;;13.33;72.70;101500.47;4999808;28;104139;-52
2022/11/20 00:27:15;;;;;;;63.90;59.83;;;;;;;13.31;73.11;101475.34;5004055;28;101846;-52
2022/11/20 00:29:43;;;;;;;58.35;54.60;;;;;;;13.31;72.68;101465.22;5003070;28;101992;-52
2022/11/20 00:32:09;;;;;;;59.42;55.50;;;;;;;13.31;73.14;101469.88;5005221;28;102171;-52
2022/11/20 00:34:38;;;;;;;57.25;53.53;;;;;;;13.32;72.69;101460.56;4997468;28;103853;-52
2022/11/20 00:37:04;;;;;;;59.45;55.67;;;;;;;13.31;72.82;101454.28;4998497;28;102140;-52
2022/11/20 00:39:31;;;;;;;64.40;60.40;;;;;;;13.31;72.83;101454.28;5013804;28;102927;-52
2022/11/20 00:41:59;;;;;;;59.85;55.97;;;;;;;13.31;72.96;101457.03;5010364;28;104597;-52
2022/11/20 00:44:25;;;;;;;62.78;58.80;;;;;;;13.30;72.59;101458.09;5000216;28;104096;-52
2022/11/20 00:46:52;;;;;;;58.20;54.45;;;;;;;13.31;72.76;101472.59;4998182;28;102110;-52
2022/11/20 00:49:19;;;;;;;60.85;57.08;;;;;;;13.30;73.02;101468.22;5001678;28;102217;-52
2022/11/20 00:51:46;;;;;;;60.03;56.03;;;;;;;13.31;72.73;101464.41;5008982;28;102506;-52
2022/11/20 00:54:13;;;;;;;60.72;57.00;;;;;;;13.28;72.98;101473.97;5007718;28;104468;-52
2022/11/20 00:56:39;;;;;;;59.63;55.92;;;;;;;13.29;73.09;101455.66;4998994;28;102757;-52
2022/11/20 00:59:09;;;;;;;61.08;57.25;;;;;;;13.28;73.05;101423.94;4999192;28;102209;-52
2022/11/20 01:01:36;;;;;;;58.58;54.80;;;;;;;13.26;73.20;101399.59;5003807;28;102475;-52
2022/11/20 01:04:03;;;;;;;63.08;59.17;;;;;;;13.25;73.28;101389.75;5001062;28;104024;-52
2022/11/20 01:06:32;;;;;;;58.30;54.50;;;;;;;13.22;73.28;101373.88;4998433;28;102595;-52
2022/11/20 01:09:01;;;;;;;63.58;59.63;;;;;;;13.19;73.22;101364.28;5004874;28;102426;-52
2022/11/20 01:11:29;;;;;;;56.58;52.92;;;;;;;13.20;73.22;101359.69;5007645;28;102372;-52
2022/11/20 01:13:58;;;;;;;57.75;54.13;;;;;;;13.17;73.43;101350.09;4996484;28;103882;-52
2022/11/20 01:16:29;;;;;;;61.90;57.95;;;;;;;13.17;73.27;101365.69;5006585;28;102157;-52
2022/11/20 01:18:58;;;;;;;60.55;56.60;;;;;;;13.17;73.10;101363.78;4996907;28;102360;-52
2022/11/20 01:21:27;;;;;;;57.58;53.83;;;;;;;13.19;72.75;101361.56;4997419;28;102447;-52
2022/11/20 01:23:53;;;;;;;;;;;;;;;13.20;73.12;101349.56;5002938;28;103837;-52
2022/11/20 01:26:22;;;;;;;52.58;49.05;;;;;;;13.20;72.83;101335.09;5004453;28;102584;-52
2022/11/20 01:28:48;;;;;;;56.47;52.85;;;;;;;13.20;72.84;101322.22;5008334;28;102533;-52
2022/11/20 01:31:17;;;;;;;59.28;55.60;;;;;;;13.19;72.90;101330.69;5003571;28;102308;-52
2022/11/20 01:33:47;;;;;;;58.05;54.40;;;;;;;13.15;73.08;101322.22;4998428;28;103631;-52
2022/11/20 01:36:15;;;;;;;60.75;56.88;;;;;;;13.13;72.99;101321.69;4998019;28;101964;-52
2022/11/20 01:38:42;;;;;;;61.90;58.00;;;;;;;13.15;72.94;101335.88;5005094;28;102203;-52
2022/11/20 01:41:10;;;;;;;59.17;55.30;;;;;;;13.21;72.10;101333.97;5003904;28;102143;-52
2022/11/20 01:43:37;;;;;;;63.10;59.15;;;;;;;13.20;72.69;101324.97;5000213;28;103996;-52
2022/11/20 01:46:13;;;;;;;61.00;57.28;;;;;;;13.19;72.45;101315.09;4996349;28;102323;-52
2022/11/20 01:48:49;;;;;;;61.08;57.20;;;;;;;13.20;72.58;101311.31;4995822;28;102052;-52
2022/11/20 01:51:21;;;;;;;60.72;56.88;;;;;;;13.21;72.67;101301.19;5003556;28;102295;-52
2022/11/20 01:53:50;;;;;;;62.70;58.83;;;;;;;13.20;72.64;101292.16;5006279;28;104133;-52
2022/11/20 01:56:17;;;;;;;57.47;53.78;;;;;;;13.20;72.82;101288.63;4996328;28;102182;-52
2022/11/20 01:58:49;;;;;;;64.03;60.00;;;;;;;13.18;72.68;101269.75;4997295;28;102121;-52
2022/11/20 02:01:17;;;;;;;57.72;54.03;;;;;;;13.20;72.71;101277.69;5001815;28;102541;-52
2022/11/20 02:03:44;;;;;;;60.97;57.17;;;;;;;13.19;72.62;101285.03;5002394;28;104064;-52
2022/11/20 02:06:19;;;;;;;66.85;62.65;;;;;;;13.21;72.25;101269.19;5000632;28;102325;-52
2022/11/20 02:08:45;;;;;;;56.83;53.20;;;;;;;13.20;72.48;101264.03;5001041;28;102073;-52
2022/11/20 02:11:13;;;;;;;68.45;64.32;;;;;;;13.20;72.53;101266.75;5001481;28;102285;-52
2022/11/20 02:13:43;;;;;;;60.97;57.17;;;;;;;13.18;72.66;101269.75;5001822;28;104185;-52
2022/11/20 02:16:16;;;;;;;60.13;56.38;;;;;;;13.17;72.75;101280.97;5001260;28;102391;-52
2022/11/20 02:18:44;;;;;;;64.10;60.13;;;;;;;13.18;72.92;101283.41;5005925;28;102367;-52
2022/11/20 02:21:26;;;;;;;65.32;61.25;;;;;;;13.17;72.75;101276.31;5000917;28;103356;-52
2022/11/20 02:24:07;;;;;;;59.47;55.78;;;;;;;13.16;72.62;101258.28;4999914;28;104062;-52
2022/11/20 02:26:41;;;;;;;57.58;53.85;;;;;;;13.16;72.79;101250.09;5000743;28;102514;-52
2022/11/20 02:29:07;;;;;;;60.53;56.95;;;;;;;13.15;72.73;101237.50;4998638;28;102750;-52
2022/11/20 02:31:40;;;;;;;65.60;61.55;;;;;;;13.13;72.75;101236.16;5006696;28;102896;-52
2022/11/20 02:34:07;;;;;;;59.78;56.03;;;;;;;13.12;72.83;101232.56;5001176;28;103915;-52
2022/11/20 02:36:35;;;;;;;62.53;58.55;;;;;;;13.11;72.65;101236.41;4999789;28;102001;-52
2022/11/20 02:39:03;;;;;;;58.28;54.65;;;;;;;13.11;72.77;101236.41;5004765;28;102439;-52
2022/11/20 02:41:31;;;;;;;57.33;53.77;;;;;;;13.11;72.92;101230.94;5002547;28;103528;-52
2022/11/20 02:43:58;;;;;;;59.63;55.90;;;;;;;13.12;72.90;101231.75;5000257;28;103976;-53
2022/11/20 02:46:24;;;;;;;65.40;61.53;;;;;;;13.16;72.39;101228.22;5003826;28;102619;-52
2022/11/20 02:48:51;;;;;;;63.33;59.50;;;;;;;13.17;72.34;101238.06;5000857;28;102495;-52
2022/11/20 02:51:18;;;;;;;60.47;56.72;;;;;;;13.15;72.20;101251.16;5002187;28;102813;-52
2022/11/20 02:53:45;;;;;;;59.85;56.17;;;;;;;13.17;72.21;101246.25;4996593;28;103901;-52
2022/11/20 02:56:13;;;;;;;62.42;58.67;;;;;;;13.17;72.13;101246.25;4998321;28;102395;-52
2022/11/20 02:58:41;;;;;;;66.97;63.03;;;;;;;13.17;72.48;101234.50;5003651;28;102500;-52
2022/11/20 03:01:07;;;;;;;62.75;58.92;;;;;;;13.16;72.13;101243.78;5005829;28;102210;-52
2022/11/20 03:03:34;;;;;;;60.53;56.92;;;;;;;13.15;72.51;101240.22;5007159;28;104049;-52
2022/11/20 03:06:00;;;;;;;66.68;62.70;;;;;;;13.16;72.32;101230.97;5000252;28;102235;-52
2022/11/20 03:08:28;;;;;;;59.22;55.67;;;;;;;13.16;72.32;101217.28;5004412;28;102440;-52
2022/11/20 03:10:54;;;;;;;60.15;56.35;;;;;;;13.15;72.39;101231.22;5006621;28;102294;-52
2022/11/20 03:13:22;;;;;;;64.57;60.65;;;;;;;13.14;72.46;101219.47;5004864;28;103935;-52
2022/11/20 03:15:49;;;;;;;63.72;59.95;;;;;;;13.16;72.34;101221.91;4999622;28;102217;-52
2022/11/20 03:18:18;;;;;;;64.40;60.50;;;;;;;13.18;72.24;101225.19;5002530;28;102409;-52
2022/11/20 03:20:45;;;;;;;64.05;60.28;;;;;;;13.15;72.41;101225.75;5001773;28;103032;-52
2022/11/20 03:23:12;;;;;;;63.30;59.58;;;;;;;13.13;72.36;101215.09;5010246;28;103984;-52
2022/11/20 03:25:42;;;;;;;65.15;61.33;;;;;;;13.15;72.13;101225.75;5003602;28;102221;-52
2022/11/20 03:28:08;;;;;;;65.60;61.67;;;;;;;13.14;72.17;101214.00;5001354;28;102141;-52
2022/11/20 03:30:37;;;;;;;69.00;65.00;;;;;;;13.14;72.34;101207.72;5000013;28;102196;-52
2022/11/20 03:33:03;;;;;;;62.35;58.70;;;;;;;13.12;72.32;101197.06;5002299;28;104141;-52
2022/11/20 03:35:33;;;;;;;64.53;60.83;;;;;;;13.13;72.39;101200.63;5006919;28;102431;-52
2022/11/20 03:38:00;;;;;;;64.43;60.50;;;;;;;13.12;72.40;101198.97;5008604;28;102225;-52
2022/11/20 03:40:26;;;;;;;65.20;61.35;;;;;;;13.10;72.67;101193.78;4995250;28;102248;-52
2022/11/20 03:42:53;;;;;;;60.85;57.33;;;;;;;13.09;72.49;101199.53;5005051;28;103902;-52
2022/11/20 03:45:19;;;;;;;61.13;57.53;;;;;;;13.07;72.39;101197.06;5000249;28;101974;-52
2022/11/20 03:47:47;;;;;;;61.15;57.35;;;;;;;13.07;72.57;101191.59;4997382;28;102440;-52
2022/11/20 03:50:15;;;;;;;65.10;61.35;;;;;;;13.07;72.47;101180.69;4999201;28;102232;-52
2022/11/20 03:52:42;;;;;;;62.17;58.53;;;;;;;13.07;72.39;101180.69;5008932;28;103989;-52
2022/11/20 03:55:09;;;;;;;61.50;57.78;;;;;;;13.07;72.54;101183.41;5016552;28;102355;-52
2022/11/20 03:57:35;;;;;;;66.68;62.75;;;;;;;13.07;72.14;101188.88;5013855;28;101991;-52
2022/11/20 04:00:05;;;;;;;;;;;;;;;13.08;72.23;101193.25;5001522;28;101952;-52
2022/11/20 04:02:32;;;;;;;52.55;49.30;;;;;;;13.06;72.11;101195.44;5000413;28;104131;-52
2022/11/20 04:04:59;;;;;;;60.75;57.17;;;;;;;13.05;72.40;101187.50;5011060;28;102091;-52
2022/11/20 04:07:26;;;;;;;57.42;53.80;;;;;;;13.04;72.33;101175.75;5016974;28;102355;-52
2022/11/20 04:09:52;;;;;;;60.00;56.50;;;;;;;13.06;72.25;101165.38;5000071;28;102263;-52
2022/11/20 04:12:19;;;;;;;57.78;54.35;;;;;;;13.05;72.12;101161.00;5004971;28;103916;-52
2022/11/20 04:14:45;;;;;;;60.13;56.55;;;;;;;13.03;72.39;101155.00;5014103;28;102445;-52
2022/11/20 04:17:12;;;;;;;60.47;56.88;;;;;;;13.02;72.28;101145.19;5001394;28;104558;-52
2022/11/20 04:19:39;;;;;;;59.33;55.90;;;;;;;13.02;72.22;101156.13;5006600;28;102625;-52
2022/11/20 04:22:07;;;;;;;62.63;59.05;;;;;;;13.03;72.72;101156.94;4998677;28;103897;-52
2022/11/20 04:24:33;;;;;;;58.95;55.55;;;;;;;13.01;72.12;101143.53;5002902;28;102288;-52
2022/11/20 04:27:00;;;;;;;60.20;56.65;;;;;;;13.00;72.28;101139.16;5002443;28;102154;-52
2022/11/20 04:29:26;;;;;;;62.97;59.35;;;;;;;12.97;72.48;101143.25;5007525;28;103473;-52
2022/11/20 04:31:53;;;;;;;60.20;56.70;;;;;;;12.99;72.43;101134.81;4997649;28;103921;-52
2022/11/20 04:34:19;;;;;;;63.03;59.30;;;;;;;12.96;72.41;101135.34;5010056;28;102095;-52
2022/11/20 04:36:46;;;;;;;58.70;55.25;;;;;;;12.94;72.16;101126.59;5008392;28;102364;-52
2022/11/20 04:39:17;;;;;;;58.15;54.83;;;;;;;12.97;72.49;101142.44;5007952;28;102651;-52
2022/11/20 04:41:47;;;;;;;59.50;56.00;;;;;;;12.97;72.26;101136.97;5009157;28;104107;-52
2022/11/20 04:44:14;;;;;;;54.25;51.08;;;;;;;12.93;70.20;101130.44;5005115;28;102647;-52
2022/11/20 04:46:41;;;;;;;54.78;51.53;;;;;;;12.93;72.09;101114.88;5003920;28;102244;-52
2022/11/20 04:49:08;;;;;;;52.45;49.35;;;;;;;12.93;72.18;101103.13;5009636;28;102200;-52
2022/11/20 04:51:35;;;;;;;53.28;50.20;;;;;;;12.92;71.93;101112.41;5006543;28;104358;-52
2022/11/20 04:54:01;;;;;;;52.70;49.28;;;;;;;12.90;71.35;101098.22;5001919;28;102313;-52
2022/11/20 04:56:29;;;;;;;54.97;51.65;;;;;;;12.91;72.24;101097.09;4998095;28;102170;-52
2022/11/20 04:59:00;;;;;;;48.85;45.90;;;;;;;12.92;72.25;101104.22;4998255;28;102496;-52
2022/11/20 05:01:26;;;;;;;54.67;51.25;;;;;;;12.92;72.26;101106.97;4999462;28;103954;-52
2022/11/20 05:04:13;;;;;;;52.38;49.20;;;;;;;12.94;71.99;101099.28;5006853;28;102637;-52
2022/11/20 05:06:39;;;;;;;50.20;47.05;;;;;;;12.95;72.19;101100.94;5002437;28;102464;-52
2022/11/20 05:09:06;;;;;;;51.25;48.10;;;;;;;12.94;71.96;101088.34;5001091;28;102163;-52
2022/11/20 05:11:34;;;;;;;53.38;50.08;;;;;;;12.94;72.02;101091.09;5008683;28;103881;-52
2022/11/20 05:14:00;;;;;;;52.58;49.35;;;;;;;12.93;71.73;101075.81;5015502;28;102416;-52
2022/11/20 05:16:27;;;;;;;48.92;45.83;;;;;;;12.94;72.30;101074.69;5008785;28;102194;-52
2022/11/20 05:18:54;;;;;;;50.20;47.17;;;;;;;12.95;71.94;101073.63;5003105;28;102519;-52
2022/11/20 05:21:22;;;;;;;51.25;48.20;;;;;;;12.95;71.93;101076.34;5011732;28;104059;-52
2022/11/20 05:23:49;;;;;;;52.08;49.00;;;;;;;12.94;71.97;101066.50;5005558;28;102361;-52
2022/11/20 05:26:19;;;;;;;52.38;49.17;;;;;;;12.93;71.99;101048.47;5004280;28;103031;-52
2022/11/20 05:28:48;;;;;;;53.17;49.92;;;;;;;12.94;72.08;101055.56;4998957;28;102096;-52
2022/11/20 05:31:19;;;;;;;49.45;46.50;;;;;;;12.95;72.11;101057.22;4996616;28;103964;-52
2022/11/20 05:33:46;;;;;;;54.97;51.63;;;;;;;12.96;71.71;101062.41;5001157;28;102731;-52
2022/11/20 05:36:14;;;;;;;56.83;53.28;;;;;;;12.97;71.95;101068.69;4996153;28;102688;-52
2022/11/20 05:38:42;;;;;;;53.35;50.10;;;;;;;12.98;71.59;101067.56;5009794;28;102560;-52
2022/11/20 05:41:11;;;;;;;55.42;52.15;;;;;;;12.97;71.53;101065.94;5007704;28;104205;-52
2022/11/20 05:43:40;;;;;;;56.20;52.83;;;;;;;12.97;71.77;101055.03;5003759;28;102002;-52
2022/11/20 05:46:10;;;;;;;54.20;50.90;;;;;;;12.95;71.82;101040.84;5001361;28;102272;-52
2022/11/20 05:48:39;;;;;;;53.00;49.83;;;;;;;12.95;71.81;101035.38;5005815;28;102685;-52
2022/11/20 05:51:07;;;;;;;49.72;46.67;;;;;;;12.92;72.07;101036.75;4995893;28;103732;-52
2022/11/20 05:53:34;;;;;;;;;;;;;;;12.91;71.95;101034.28;5005436;28;104621;-52
2022/11/20 05:56:03;;;;;;;43.22;40.55;;;;;;;12.89;71.83;101020.09;5004763;28;102201;-52
2022/11/20 05:58:30;;;;;;;49.08;46.15;;;;;;;12.91;72.12;101018.72;5002232;28;102823;-52
2022/11/20 06:01:04;;;;;;;48.97;46.00;;;;;;;12.90;71.98;101010.78;5007889;28;103930;-52
2022/11/20 06:03:34;;;;;;;52.13;48.92;;;;;;;12.89;71.89;101009.16;5007095;28;102597;-52
2022/11/20 06:06:02;;;;;;;50.00;46.78;;;;;;;12.84;71.20;100990.91;4998027;28;102058;-52
2022/11/20 06:08:28;;;;;;;50.67;47.60;;;;;;;12.83;71.96;100994.69;5004913;28;102214;-52
2022/11/20 06:10:55;;;;;;;49.45;46.42;;;;;;;12.83;71.29;101004.81;4996830;28;103996;-52
2022/11/20 06:13:22;;;;;;;48.35;45.35;;;;;;;12.85;72.03;100997.16;5001545;28;102244;-52
2022/11/20 06:15:51;;;;;;;51.33;48.28;;;;;;;12.84;71.78;101007.28;5011443;28;102747;-52
2022/11/20 06:18:19;;;;;;;50.20;47.22;;;;;;;12.82;71.54;100986.81;5003216;28;102292;-52
2022/11/20 06:20:47;;;;;;;46.03;43.13;;;;;;;12.81;70.91;100985.19;5000213;28;104058;-52
2022/11/20 06:23:13;;;;;;;49.88;46.95;;;;;;;12.82;72.08;100995.81;4997018;28;102479;-52
2022/11/20 06:25:43;;;;;;;46.70;43.85;;;;;;;12.84;72.15;100990.06;5009751;28;102164;-52
2022/11/20 06:28:10;;;;;;;47.55;44.67;;;;;;;12.83;72.09;100988.44;4998503;28;102678;-52
2022/11/20 06:30:37;;;;;;;49.38;46.47;;;;;;;12.84;71.96;100995.50;5003593;28;103874;-52
2022/11/20 06:33:03;;;;;;;45.15;42.40;;;;;;;12.83;72.04;100977.50;5003666;28;102290;-51
2022/11/20 06:35:30;;;;;;;47.75;44.75;;;;;;;12.81;71.67;100979.72;5000866;28;102758;-52
2022/11/20 06:37:58;;;;;;;44.63;41.92;;;;;;;12.82;72.07;100964.94;4998894;28;102460;-52
2022/11/20 06:40:24;;;;;;;45.90;43.05;;;;;;;12.83;71.77;100955.66;5003543;28;104222;-52
2022/11/20 06:42:54;;;;;;;48.15;45.28;;;;;;;12.80;71.57;100967.13;4995429;28;102384;-52
2022/11/20 06:45:21;;;;;;;51.65;48.63;;;;;;;12.77;70.85;100995.84;5000802;28;102529;-52
2022/11/20 06:47:47;;;;;;;50.72;47.67;;;;;;;12.79;71.53;100984.63;4996017;28;102598;-52
2022/11/20 06:50:14;;;;;;;50.25;47.33;;;;;;;12.80;71.69;100978.06;5005702;28;103843;-52
2022/11/20 06:52:41;;;;;;;46.83;43.97;;;;;;;12.82;72.14;100975.88;5004550;28;102110;-52
2022/11/20 06:55:09;;;;;;;47.13;44.33;;;;;;;12.81;71.75;100979.72;4994612;28;102124;-52
2022/11/20 06:57:36;;;;;;;44.75;42.05;;;;;;;12.81;71.85;100996.09;5000859;28;102975;-52
2022/11/20 07:00:03;;;;;;;42.67;40.05;;;;;;;12.81;71.77;100979.72;5005261;28;103844;-52
2022/11/20 07:02:30;;;;;;;43.85;41.28;;;;;;;12.81;71.97;100979.72;4995204;28;102445;-52
2022/11/20 07:04:57;;;;;;;44.97;42.35;;;;;;;12.81;71.67;100971.53;4999626;28;102320;-52
2022/11/20 07:07:24;;;;;;;43.50;40.88;;;;;;;12.80;72.02;100967.94;5001730;28;102210;-52
2022/11/20 07:09:50;;;;;;;44.00;41.42;;;;;;;12.78;72.05;100942.84;4998666;28;103948;-52
2022/11/20 07:12:19;;;;;;;43.67;41.15;;;;;;;12.77;72.07;100954.06;5001982;28;102530;-52
2022/11/20 07:14:45;;;;;;;45.00;42.20;;;;;;;12.76;71.54;100939.56;5005325;28;102449;-52
2022/11/20 07:17:12;;;;;;;44.15;41.58;;;;;;;12.72;71.22;100933.84;5004347;28;102523;-52
2022/11/20 07:19:38;;;;;;;43.85;41.35;;;;;;;12.75;71.78;100944.22;5003799;28;104094;-52
2022/11/20 07:22:04;;;;;;;47.15;44.30;;;;;;;12.75;71.59;100946.94;5012162;28;101989;-52
2022/11/20 07:24:31;;;;;;;39.95;37.63;;;;;;;12.76;71.96;100934.09;5007369;28;102921;-52
2022/11/20 07:26:58;;;;;;;44.40;41.90;;;;;;;12.75;71.82;100933.28;5011844;28;104660;-52
2022/11/20 07:29:26;;;;;;;42.72;40.22;;;;;;;12.78;72.13;100914.72;5007827;28;103495;-52
2022/11/20 07:31:52;;;;;;;43.72;41.25;;;;;;;12.78;71.96;100904.63;5005418;28;103677;-52
2022/11/20 07:34:19;;;;;;;37.00;34.83;;;;;;;12.81;71.45;100914.16;5003273;28;102445;-52
2022/11/20 07:36:46;;;;;;;39.75;37.58;;;;;;;12.83;71.42;100911.94;5007644;28;102361;-52
2022/11/20 07:39:13;;;;;;;42.47;40.08;;;;;;;12.84;71.83;100913.56;5008147;28;103887;-52
2022/11/20 07:41:39;;;;;;;43.80;41.30;;;;;;;12.84;71.91;100914.41;5005940;28;103255;-52
2022/11/20 07:44:06;;;;;;;44.08;41.63;;;;;;;12.84;72.04;100921.78;4998692;28;102014;-52
2022/11/20 07:46:33;;;;;;;45.15;42.63;;;;;;;12.83;71.73;100923.69;5000716;28;102259;-52
2022/11/20 07:49:00;;;;;;;40.30;38.08;;;;;;;12.82;72.08;100902.13;5010371;28;103869;-52
2022/11/20 07:51:27;;;;;;;44.30;41.83;;;;;;;12.82;71.99;100915.78;5011216;28;102603;-52
2022/11/20 07:53:53;;;;;;;43.65;41.22;;;;;;;12.82;71.99;100921.25;5005338;28;102020;-52
2022/11/20 07:56:20;;;;;;;40.63;38.45;;;;;;;12.82;71.73;100913.06;5008917;28;102170;-52
2022/11/20 07:58:47;;;;;;;42.28;39.92;;;;;;;12.80;71.19;100896.13;5004092;28;103959;-52
2022/11/20 08:01:13;;;;;;;43.00;40.67;;;;;;;12.81;72.29;100889.59;5000133;28;102086;-52
2022/11/20 08:03:43;;;;;;;45.67;43.17;;;;;;;12.82;72.10;100888.47;5000644;28;102674;-52
2022/11/20 08:06:09;;;;;;;41.95;39.70;;;;;;;12.82;72.05;100893.94;5007573;28;102171;-52
2022/11/20 08:08:39;;;;;;;41.45;39.17;;;;;;;12.76;71.24;100876.75;5003261;28;103925;-52
2022/11/20 08:16:35;;;;;;;39.33;37.03;;;;;;;12.79;72.13;100853.53;5005876;28;103737;-52
2022/11/20 08:19:07;;;;;;;44.72;42.30;;;;;;;12.81;72.23;100849.44;5009157;28;104300;-52
2022/11/20 08:21:36;;;;;;;44.20;41.75;;;;;;;12.85;72.15;100838.75;5010072;28;102110;-52
2022/11/20 08:24:03;;;;;;;41.30;39.08;;;;;;;12.84;72.07;100832.47;5007824;28;102091;-52
2022/11/20 08:26:29;;;;;;;43.08;40.65;;;;;;;12.83;72.18;100840.94;5008079;28;102260;-52
2022/11/20 08:28:57;;;;;;;42.35;40.05;;;;;;;12.84;72.08;100831.63;5009518;28;104048;-52
2022/11/20 08:31:25;;;;;;;42.65;40.33;;;;;;;12.84;72.24;100831.63;5008879;28;102497;-52
2022/11/20 08:33:52;;;;;;;44.85;42.40;;;;;;;12.85;72.03;100817.72;5006610;28;102685;-52
2022/11/20 08:36:21;;;;;;;45.85;43.38;;;;;;;12.85;72.14;100817.72;5009217;28;102234;-52
2022/11/20 08:38:48;;;;;;;45.80;43.33;;;;;;;12.84;71.88;100820.72;5010593;28;104234;-52
2022/11/20 08:41:23;;;;;;;38.72;36.70;;;;;;;12.84;71.75;100799.72;5005190;28;102338;-52
2022/11/20 08:43:51;;;;;;;44.58;42.00;;;;;;;12.86;72.24;100796.69;5007141;28;102354;-52
2022/11/20 08:46:17;;;;;;;41.80;39.53;;;;;;;12.84;72.16;100788.78;5001521;28;102225;-52
2022/11/20 08:48:44;;;;;;;42.97;40.67;;;;;;;12.82;72.16;100771.84;4997840;28;103896;-52
2022/11/20 08:51:12;;;;;;;41.75;39.47;;;;;;;12.81;72.38;100756.56;5000666;28;102495;-52
2022/11/20 08:53:41;;;;;;;44.50;42.10;;;;;;;12.82;72.31;100760.13;5000909;28;102516;-52
2022/11/20 08:56:09;;;;;;;42.58;40.10;;;;;;;12.82;72.36;100762.84;4999238;28;102231;-52
2022/11/20 08:58:37;;;;;;;;;;;;;;;12.82;72.37;100754.66;4995652;28;103755;-52
2022/11/20 09:01:04;;;;;;;36.33;34.22;;;;;;;12.83;72.35;100759.81;4996233;28;102573;-52
2022/11/20 09:03:30;;;;;;;41.15;38.80;;;;;;;12.85;72.27;100756.81;4994944;28;102135;-52
2022/11/20 09:05:58;;;;;;;38.35;36.05;;;;;;;12.84;72.17;100741.50;4997818;28;102769;-52
2022/11/20 09:08:24;;;;;;;41.38;38.97;;;;;;;12.81;72.19;100748.38;4995145;28;104093;-52
2022/11/20 09:10:53;;;;;;;42.60;40.30;;;;;;;12.81;72.23;100736.66;5002747;28;102154;-52
2022/11/20 09:13:20;;;;;;;43.92;41.53;;;;;;;12.79;72.20;100736.09;5000642;28;101962;-52
2022/11/20 09:15:47;;;;;;;40.38;38.17;;;;;;;12.79;72.18;100741.56;5009481;28;102184;-52
2022/11/20 09:18:14;;;;;;;41.05;38.63;;;;;;;12.75;71.92;100719.47;4999583;28;103859;-52
2022/11/20 09:20:40;;;;;;;42.45;40.15;;;;;;;12.75;72.11;100720.28;4995299;28;102436;-52
2022/11/20 09:23:07;;;;;;;42.13;39.75;;;;;;;12.77;72.09;100719.22;5007077;28;101958;-52
2022/11/20 09:25:34;;;;;;;42.75;40.35;;;;;;;12.77;71.94;100724.66;5006209;28;102497;-52
2022/11/20 09:28:02;;;;;;;41.75;39.33;;;;;;;12.76;72.03;100712.91;5000558;28;103979;-52
2022/11/20 09:30:29;;;;;;;36.80;34.65;;;;;;;12.74;71.75;100701.47;4996278;28;102555;-52
2022/11/20 09:32:55;;;;;;;40.70;38.40;;;;;;;12.75;71.91;100695.72;4999592;28;102173;-52
2022/11/20 09:35:22;;;;;;;40.30;38.05;;;;;;;12.73;72.24;100700.66;4995815;28;102622;-52
2022/11/20 09:37:51;;;;;;;45.47;42.97;;;;;;;12.75;72.25;100698.44;4997527;28;104144;-52
2022/11/20 09:40:20;;;;;;;41.20;38.85;;;;;;;12.77;72.26;100700.91;4997123;28;102314;-52
2022/11/20 09:42:55;;;;;;;44.80;42.22;;;;;;;12.79;72.36;100703.34;5008670;28;102518;-51
2022/11/20 09:45:47;;;;;;;42.78;40.38;;;;;;;12.80;72.16;100704.94;5007347;28;102173;-52
2022/11/20 09:48:26;;;;;;;45.05;42.55;;;;;;;12.78;72.03;100677.94;4992944;28;103946;-52
2022/11/20 09:51:03;;;;;;;42.47;40.10;;;;;;;12.78;72.33;100679.88;4995974;28;102028;-52
2022/11/20 09:53:37;;;;;;;42.03;39.50;;;;;;;12.79;72.24;100673.28;5004544;28;102059;-52
2022/11/20 09:56:04;;;;;;;40.97;38.67;;;;;;;12.79;72.28;100665.09;4997763;28;102220;-52
2022/11/20 09:58:39;;;;;;;45.08;42.42;;;;;;;12.78;72.20;100669.75;4996846;28;103961;-52
2022/11/20 10:01:12;;;;;;;43.30;40.80;;;;;;;12.81;72.12;100662.91;5000228;28;102179;-52
2022/11/20 10:03:50;;;;;;;44.90;42.40;;;;;;;12.79;72.29;100654.19;4998405;28;102836;-51
2022/11/20 10:06:20;;;;;;;44.42;41.85;;;;;;;12.78;72.27;100642.44;5000246;28;102681;-52
2022/11/20 10:08:55;;;;;;;41.42;38.95;;;;;;;12.77;72.13;100651.75;4999912;28;104045;-52
2022/11/20 10:11:30;;;;;;;43.42;40.72;;;;;;;12.79;72.31;100648.72;5002407;28;102955;-52
2022/11/20 10:14:08;;;;;;;48.53;45.78;;;;;;;12.79;72.28;100648.72;5000342;28;103087;-52
2022/11/20 10:16:47;;;;;;;41.92;39.42;;;;;;;12.79;72.25;100637.78;5000196;28;102191;-52
2022/11/20 10:19:30;;;;;;;47.60;44.92;;;;;;;12.80;72.42;100644.88;4999515;28;103897;-52
2022/11/20 10:22:08;;;;;;;42.97;40.40;;;;;;;12.79;72.30;100652.25;4996681;28;102730;-52
2022/11/20 10:24:52;;;;;;;42.00;39.43;;;;;;;12.83;72.28;100652.50;4998605;28;102319;-52
2022/11/20 10:27:46;;;;;;;44.58;42.03;;;;;;;12.83;71.98;100638.84;5000944;28;102705;-52
2022/11/20 10:30:18;;;;;;;41.92;39.53;;;;;;;12.83;72.10;100614.25;4997338;28;103907;-52
2022/11/20 10:32:46;;;;;;;;;;;;;;;12.82;72.03;100604.44;4996284;28;102461;-52
2022/11/20 10:35:22;;;;;;;39.33;37.00;;;;;;;12.84;72.04;100600.34;4997387;28;102561;-52
2022/11/20 10:37:55;;;;;;;43.75;41.13;;;;;;;12.84;72.14;100596.75;4999176;28;102156;-52
2022/11/20 10:40:29;;;;;;;44.35;41.67;;;;;;;12.85;72.20;100598.41;4997439;28;104379;-52
2022/11/20 10:42:59;;;;;;;40.97;38.58;;;;;;;12.87;72.14;100609.84;4997964;28;102619;-52
2022/11/20 10:45:40;;;;;;;47.40;44.70;;;;;;;12.87;72.01;100601.66;4996356;28;102212;-52
2022/11/20 10:48:20;;;;;;;43.80;41.30;;;;;;;12.88;72.21;100603.31;4997583;28;102091;-52
2022/11/20 10:51:07;;;;;;;46.80;44.15;;;;;;;12.89;72.26;100594.00;4999372;28;103844;-52
2022/11/20 10:53:47;;;;;;;47.40;44.67;;;;;;;12.88;72.10;100570.53;4999679;28;102825;-52
2022/11/20 10:56:20;;;;;;;50.88;48.00;;;;;;;12.86;72.05;100556.34;4996962;28;102753;-52
2022/11/20 10:58:58;;;;;;;46.60;43.97;;;;;;;12.87;72.08;100541.56;4998007;28;102276;-52
2022/11/20 11:01:26;;;;;;;46.20;43.38;;;;;;;12.85;72.37;100543.78;4998721;28;104487;-52
2022/11/20 11:03:55;;;;;;;43.97;41.33;;;;;;;12.85;72.23;100536.41;4999491;28;102914;-52
2022/11/20 11:06:28;;;;;;;44.17;41.70;;;;;;;12.86;72.34;100543.50;4998480;28;101982;-52
2022/11/20 11:08:58;;;;;;;44.22;41.53;;;;;;;12.86;72.36;100539.94;4999559;28;102621;-52
2022/11/20 11:11:28;;;;;;;44.38;41.65;;;;;;;12.86;72.40;100539.94;4997881;28;108339;-52
2022/11/20 11:14:05;;;;;;;50.75;47.83;;;;;;;12.88;72.23;100543.22;5000109;28;102698;-52